createdAt,value
2018-12-20T00:00:47.139Z,3.47
2018-12-20T00:03:15.152Z,3.45
2018-12-20T00:05:43.423Z,3.52
2018-12-20T00:08:11.631Z,3.52
2018-12-20T00:10:39.699Z,3.51
2018-12-20T00:13:07.796Z,3.54
2018-12-20T00:15:35.506Z,3.53
2018-12-20T00:18:03.613Z,3.41
2018-12-20T00:20:31.437Z,3.50
2018-12-20T00:22:59.470Z,3.52
2018-12-20T00:25:27.845Z,3.44
2018-12-20T00:27:55.884Z,3.48
2018-12-20T00:30:23.882Z,3.47
2018-12-20T00:32:52.011Z,3.38
2018-12-20T00:35:20.004Z,3.46
2018-12-20T00:37:48.072Z,3.48
2018-12-20T00:40:16.168Z,3.48
2018-12-20T00:42:44.103Z,3.48
2018-12-20T00:45:12.396Z,3.51
2018-12-20T00:47:40.573Z,3.52
2018-12-20T00:50:08.931Z,3.51
2018-12-20T00:52:37.147Z,3.51
2018-12-20T00:55:05.057Z,3.56
2018-12-20T00:57:33.249Z,3.54
2018-12-20T01:00:01.299Z,3.50
2018-12-20T01:02:29.407Z,3.56
2018-12-20T01:04:57.592Z,3.58
2018-12-20T01:07:25.742Z,3.60
2018-12-20T01:09:54.174Z,3.58
2018-12-20T01:12:22.463Z,3.56
2018-12-20T01:14:50.870Z,3.56
2018-12-20T01:17:19.270Z,3.57
2018-12-20T01:19:47.228Z,3.61
2018-12-20T01:22:15.224Z,3.67
2018-12-20T01:24:43.518Z,3.61
2018-12-20T01:27:11.895Z,3.53
2018-12-20T01:29:40.049Z,3.63
2018-12-20T01:32:07.983Z,3.71
2018-12-20T01:34:35.919Z,3.66
2018-12-20T01:37:04.203Z,3.73
2018-12-20T01:39:32.514Z,3.63
2018-12-20T01:42:00.669Z,3.66
2018-12-20T01:44:28.906Z,3.68
2018-12-20T01:46:56.918Z,3.60
2018-12-20T01:49:25.077Z,3.72
2018-12-20T01:51:53.337Z,3.75
2018-12-20T01:54:21.378Z,3.73
2018-12-20T01:56:49.502Z,3.74
2018-12-20T01:59:17.521Z,3.75
2018-12-20T02:01:45.520Z,3.67
2018-12-20T02:04:13.902Z,3.69
2018-12-20T02:06:42.060Z,3.69
2018-12-20T02:09:09.990Z,3.68
2018-12-20T02:11:37.945Z,3.69
2018-12-20T02:14:05.857Z,3.70
2018-12-20T02:16:34.175Z,3.60
2018-12-20T02:19:02.274Z,3.66
2018-12-20T02:21:30.265Z,3.68
2018-12-20T02:23:58.540Z,3.66
2018-12-20T02:26:26.360Z,3.65
2018-12-20T02:28:54.539Z,3.64
2018-12-20T02:31:22.656Z,3.59
2018-12-20T02:33:50.587Z,3.60
2018-12-20T02:36:18.448Z,3.60
2018-12-20T02:38:46.319Z,3.61
2018-12-20T02:41:14.473Z,3.61
2018-12-20T02:43:42.839Z,3.54
2018-12-20T02:46:11.125Z,3.56
2018-12-20T02:48:39.455Z,3.58
2018-12-20T02:51:07.609Z,3.56
2018-12-20T02:53:35.710Z,3.59
2018-12-20T02:56:03.836Z,3.54
2018-12-20T02:58:32.064Z,3.58
2018-12-20T03:01:00.122Z,3.49
2018-12-20T03:03:28.404Z,3.53
2018-12-20T03:05:57.017Z,3.51
2018-12-20T03:08:25.126Z,3.54
2018-12-20T03:10:53.069Z,3.53
2018-12-20T03:13:20.933Z,3.53
2018-12-20T03:15:49.189Z,3.51
2018-12-20T03:18:17.440Z,3.54
2018-12-20T03:20:45.513Z,3.51
2018-12-20T03:23:13.824Z,3.54
2018-12-20T03:25:41.758Z,3.48
2018-12-20T03:28:10.065Z,3.50
2018-12-20T03:30:38.844Z,3.48
2018-12-20T03:33:10.351Z,3.48
2018-12-20T03:35:37.275Z,3.55
2018-12-20T03:38:05.478Z,3.53
2018-12-20T03:40:34.435Z,3.53
2018-12-20T03:43:02.421Z,3.53
2018-12-20T03:45:30.825Z,3.56
2018-12-20T03:47:58.834Z,3.49
2018-12-20T03:50:26.892Z,3.48
2018-12-20T03:52:54.883Z,3.51
2018-12-20T03:55:23.328Z,3.40
2018-12-20T03:57:51.490Z,3.51
2018-12-20T04:00:20.022Z,3.49
2018-12-20T04:02:47.975Z,3.49
2018-12-20T04:05:16.088Z,3.53
2018-12-20T04:07:44.092Z,3.51
2018-12-20T04:10:12.475Z,3.45
2018-12-20T04:12:40.636Z,3.48
2018-12-20T04:15:08.723Z,3.50
2018-12-20T04:17:36.541Z,3.52
2018-12-20T04:20:05.442Z,3.51
2018-12-20T04:22:33.453Z,3.53
2018-12-20T04:25:01.690Z,3.54
2018-12-20T04:27:29.926Z,3.57
2018-12-20T04:29:58.396Z,3.48
2018-12-20T04:32:26.569Z,3.53
2018-12-20T04:34:54.888Z,3.47
2018-12-20T04:37:23.174Z,3.45
2018-12-20T04:39:51.129Z,3.51
2018-12-20T04:42:19.133Z,3.51
2018-12-20T04:44:47.309Z,3.48
2018-12-20T04:47:15.300Z,3.49
2018-12-20T04:49:43.446Z,3.51
2018-12-20T04:52:11.720Z,3.52
2018-12-20T04:54:39.774Z,3.50
2018-12-20T04:57:07.669Z,3.54
2018-12-20T04:59:35.581Z,3.51
2018-12-20T05:02:03.571Z,3.56
2018-12-20T05:04:31.678Z,3.41
2018-12-20T05:06:59.742Z,3.47
2018-12-20T05:09:28.021Z,3.57
2018-12-20T05:11:56.079Z,3.46
2018-12-20T05:14:25.336Z,3.48
2018-12-20T05:16:54.062Z,3.51
2018-12-20T05:19:22.331Z,3.47
2018-12-20T05:21:50.451Z,3.44
2018-12-20T05:24:18.385Z,3.46
2018-12-20T05:26:46.555Z,3.48
2018-12-20T05:29:14.681Z,3.50
2018-12-20T05:31:42.683Z,3.46
2018-12-20T05:34:10.753Z,3.46
2018-12-20T05:36:39.059Z,3.51
2018-12-20T05:39:07.129Z,3.45
2018-12-20T05:41:35.360Z,3.47
2018-12-20T05:44:03.804Z,3.47
2018-12-20T05:46:31.815Z,3.46
2018-12-20T05:48:59.960Z,3.48
2018-12-20T05:51:28.129Z,3.50
2018-12-20T05:53:56.592Z,3.49
2018-12-20T05:56:24.716Z,3.49
2018-12-20T05:58:52.824Z,3.45
2018-12-20T06:01:20.845Z,3.45
2018-12-20T06:03:49.026Z,3.48
2018-12-20T06:06:17.327Z,3.46
2018-12-20T06:08:46.031Z,3.57
2018-12-20T06:11:14.512Z,3.53
2018-12-20T06:13:43.259Z,3.51
2018-12-20T06:16:13.029Z,3.53
2018-12-20T06:18:41.353Z,3.41
2018-12-20T06:21:09.865Z,3.52
2018-12-20T06:23:38.044Z,3.55
2018-12-20T06:26:05.976Z,3.58
2018-12-20T06:28:33.843Z,3.52
2018-12-20T06:31:02.035Z,3.52
2018-12-20T06:33:29.974Z,3.48
2018-12-20T06:35:57.817Z,3.50
2018-12-20T06:38:25.957Z,3.46
2018-12-20T06:40:54.072Z,3.48
2018-12-20T06:43:22.886Z,3.49
2018-12-20T06:45:50.876Z,3.45
2018-12-20T06:48:18.759Z,3.49
2018-12-20T06:50:47.340Z,3.48
2018-12-20T06:53:15.350Z,3.40
2018-12-20T06:55:43.381Z,3.40
2018-12-20T06:58:11.430Z,3.36
2018-12-20T07:00:39.399Z,3.39
2018-12-20T07:03:07.562Z,3.34
2018-12-20T07:05:35.781Z,3.31
2018-12-20T07:08:03.738Z,3.30
2018-12-20T07:10:31.603Z,3.32
2018-12-20T07:12:59.649Z,3.31
2018-12-20T07:15:28.619Z,3.27
2018-12-20T07:17:56.605Z,3.23
2018-12-20T07:20:24.546Z,3.21
2018-12-20T07:22:52.488Z,3.22
2018-12-20T07:25:20.428Z,3.26
2018-12-20T07:27:48.370Z,3.17
2018-12-20T07:30:16.275Z,3.21
2018-12-20T07:32:44.347Z,3.15
2018-12-20T07:35:13.315Z,3.19
2018-12-20T07:37:41.906Z,3.18
2018-12-20T07:40:10.302Z,3.18
2018-12-20T07:42:38.337Z,3.21
2018-12-20T07:45:07.460Z,3.18
2018-12-20T07:47:35.444Z,3.22
2018-12-20T07:50:03.760Z,3.21
2018-12-20T07:52:31.952Z,3.23
2018-12-20T07:54:59.915Z,3.25
2018-12-20T07:57:28.033Z,3.24
2018-12-20T07:59:56.077Z,3.25
2018-12-20T08:02:24.379Z,3.28
2018-12-20T08:04:52.427Z,3.31
2018-12-20T08:07:20.620Z,3.33
2018-12-20T08:09:48.558Z,3.29
2018-12-20T08:12:16.700Z,3.40
2018-12-20T08:14:45.391Z,3.43
2018-12-20T08:17:13.385Z,3.44
2018-12-20T08:19:41.246Z,3.43
2018-12-20T08:22:09.237Z,3.29
2018-12-20T08:24:37.180Z,3.49
2018-12-20T08:27:05.193Z,3.41
2018-12-20T08:29:33.235Z,3.47
2018-12-20T08:32:01.177Z,3.51
2018-12-20T08:34:29.068Z,3.54
2018-12-20T08:36:56.931Z,3.60
2018-12-20T08:39:24.847Z,3.62
2018-12-20T08:41:53.030Z,3.66
2018-12-20T08:44:21.077Z,3.69
2018-12-20T08:46:54.382Z,3.59
2018-12-20T08:49:18.910Z,3.65
2018-12-20T08:51:49.171Z,3.66
2018-12-20T08:54:17.243Z,3.71
2018-12-20T08:56:45.463Z,3.81
2018-12-20T08:59:13.372Z,3.70
2018-12-20T09:01:41.468Z,3.79
2018-12-20T09:04:09.504Z,3.87
2018-12-20T09:06:37.469Z,3.78
2018-12-20T09:09:06.635Z,3.87
2018-12-20T09:11:34.777Z,3.92
2018-12-20T09:14:02.742Z,3.96
2018-12-20T09:16:30.556Z,3.99
2018-12-20T09:18:58.772Z,4.07
2018-12-20T09:21:26.838Z,4.10
2018-12-20T09:23:54.951Z,4.14
2018-12-20T09:26:23.205Z,4.09
2018-12-20T09:28:53.204Z,4.12
2018-12-20T09:31:21.250Z,4.08
2018-12-20T09:33:49.262Z,4.17
2018-12-20T09:36:17.252Z,4.20
2018-12-20T09:38:45.427Z,4.24
2018-12-20T09:41:13.338Z,4.22
2018-12-20T09:43:41.205Z,4.39
2018-12-20T09:46:09.716Z,4.49
2018-12-20T09:48:38.098Z,4.42
2018-12-20T09:51:06.152Z,4.44
2018-12-20T09:53:34.093Z,4.50
2018-12-20T09:56:01.903Z,4.49
2018-12-20T09:58:29.851Z,4.40
2018-12-20T10:00:57.815Z,4.59
2018-12-20T10:03:25.754Z,4.69
2018-12-20T10:05:53.622Z,4.58
2018-12-20T10:08:21.646Z,4.58
2018-12-20T10:10:49.613Z,4.63
2018-12-20T10:13:17.494Z,4.83
2018-12-20T10:15:45.433Z,4.84
2018-12-20T10:18:13.521Z,4.88
2018-12-20T10:20:41.264Z,5.00
2018-12-20T10:23:09.255Z,4.82
2018-12-20T10:25:37.295Z,4.94
2018-12-20T10:28:05.399Z,4.87
2018-12-20T10:30:33.452Z,4.86
2018-12-20T10:33:01.538Z,4.91
2018-12-20T10:35:29.607Z,4.96
2018-12-20T10:37:57.681Z,5.16
2018-12-20T10:40:25.639Z,4.97
2018-12-20T10:42:53.480Z,5.18
2018-12-20T10:45:21.343Z,5.24
2018-12-20T10:47:49.212Z,5.35
2018-12-20T10:50:17.080Z,5.23
2018-12-20T10:52:45.268Z,5.12
2018-12-20T10:55:13.363Z,5.09
2018-12-20T10:57:41.074Z,5.17
2018-12-20T11:00:09.100Z,5.06
2018-12-20T11:02:42.413Z,5.18
2018-12-20T11:05:15.599Z,5.19
2018-12-20T11:07:49.099Z,5.19
2018-12-20T11:10:22.891Z,5.06
2018-12-20T11:12:51.567Z,5.08
2018-12-20T11:15:19.509Z,5.21
2018-12-20T11:17:47.217Z,5.28
2018-12-20T11:20:14.872Z,5.26
2018-12-20T11:22:42.733Z,5.34
2018-12-20T11:25:10.472Z,5.32
2018-12-20T11:27:38.228Z,5.33
2018-12-20T11:30:07.686Z,5.19
2018-12-20T11:32:35.446Z,5.31
2018-12-20T11:35:03.090Z,5.41
2018-12-20T11:37:30.784Z,5.46
2018-12-20T11:39:59.695Z,5.54
2018-12-20T11:42:27.908Z,5.48
2018-12-20T11:44:55.891Z,5.45
2018-12-20T11:47:28.254Z,5.45
2018-12-20T11:49:56.254Z,5.74
2018-12-20T11:52:24.669Z,5.85
2018-12-20T11:54:54.198Z,5.92
2018-12-20T11:57:22.795Z,5.77
2018-12-20T11:59:50.841Z,5.91
2018-12-20T12:02:24.409Z,5.94
2018-12-20T12:04:48.850Z,5.98
2018-12-20T12:07:16.887Z,5.73
2018-12-20T12:09:44.853Z,5.93
2018-12-20T12:12:12.719Z,5.86
2018-12-20T12:14:40.584Z,5.70
2018-12-20T12:17:09.002Z,5.80
2018-12-20T12:19:36.990Z,5.80
2018-12-20T12:22:05.129Z,5.76
2018-12-20T12:24:33.073Z,5.66
2018-12-20T12:27:00.938Z,5.62
2018-12-20T12:29:29.153Z,5.64
2018-12-20T12:31:57.223Z,5.56
2018-12-20T12:34:25.298Z,5.74
2018-12-20T12:36:53.161Z,5.81
2018-12-20T12:39:21.091Z,5.90
2018-12-20T12:41:48.957Z,5.97
2018-12-20T12:44:16.827Z,6.17
2018-12-20T12:46:44.821Z,6.16
2018-12-20T12:49:12.754Z,6.19
2018-12-20T12:51:40.620Z,6.14
2018-12-20T12:54:08.742Z,6.17
2018-12-20T12:56:36.811Z,6.13
2018-12-20T12:59:04.817Z,5.92
2018-12-20T13:01:32.732Z,5.79
2018-12-20T13:04:00.998Z,5.80
2018-12-20T13:06:29.505Z,5.82
2018-12-20T13:08:57.576Z,5.70
2018-12-20T13:11:25.495Z,5.67
2018-12-20T13:13:53.411Z,5.57
2018-12-20T13:16:21.350Z,5.51
2018-12-20T13:18:49.292Z,5.60
2018-12-20T13:21:17.215Z,5.50
2018-12-20T13:23:45.249Z,5.51
2018-12-20T13:26:13.115Z,5.47
2018-12-20T13:28:41.305Z,5.57
2018-12-20T13:31:09.404Z,5.50
2018-12-20T13:33:37.472Z,5.55
2018-12-20T13:36:05.539Z,5.57
2018-12-20T13:38:33.468Z,5.65
2018-12-20T13:41:01.334Z,5.73
2018-12-20T13:43:29.449Z,5.68
2018-12-20T13:45:57.413Z,5.69
2018-12-20T13:48:25.487Z,5.78
2018-12-20T13:50:53.221Z,5.82
2018-12-20T13:53:21.061Z,5.84
2018-12-20T13:55:49.089Z,5.93
2018-12-20T13:58:17.143Z,5.90
2018-12-20T14:00:45.409Z,5.83
2018-12-20T14:03:13.452Z,5.85
2018-12-20T14:05:41.541Z,5.72
2018-12-20T14:08:09.509Z,5.73
2018-12-20T14:10:37.491Z,5.73
2018-12-20T14:13:05.637Z,5.64
2018-12-20T14:15:33.657Z,5.65
2018-12-20T14:18:01.695Z,5.58
2018-12-20T14:20:29.785Z,5.58
2018-12-20T14:22:58.690Z,5.54
2018-12-20T14:25:26.741Z,5.47
2018-12-20T14:27:54.831Z,5.39
2018-12-20T14:30:22.748Z,5.31
2018-12-20T14:32:50.613Z,5.24
2018-12-20T14:35:18.479Z,5.26
2018-12-20T14:37:46.469Z,5.22
2018-12-20T14:40:14.759Z,5.22
2018-12-20T14:42:42.850Z,5.21
2018-12-20T14:45:10.891Z,5.15
2018-12-20T14:47:38.907Z,5.19
2018-12-20T14:50:07.371Z,5.13
2018-12-20T14:52:35.337Z,5.06
2018-12-20T14:55:03.978Z,4.95
2018-12-20T14:57:32.153Z,4.83
2018-12-20T15:00:00.135Z,4.60
2018-12-20T15:02:28.100Z,4.75
2018-12-20T15:04:56.093Z,4.77
2018-12-20T15:07:24.177Z,4.79
2018-12-20T15:09:52.197Z,4.73
2018-12-20T15:12:20.320Z,4.76
2018-12-20T15:14:48.304Z,4.73
2018-12-20T15:17:16.667Z,4.72
2018-12-20T15:19:44.662Z,4.69
2018-12-20T15:22:12.813Z,4.64
2018-12-20T15:24:40.741Z,4.67
2018-12-20T15:27:08.857Z,4.54
2018-12-20T15:29:37.842Z,4.30
2018-12-20T15:32:05.888Z,4.28
2018-12-20T15:34:33.977Z,4.32
2018-12-20T15:37:02.058Z,4.28
2018-12-20T15:39:29.923Z,4.41
2018-12-20T15:41:57.976Z,4.56
2018-12-20T15:44:25.916Z,4.72
2018-12-20T15:46:53.932Z,4.73
2018-12-20T15:49:21.850Z,4.70
2018-12-20T15:51:49.712Z,4.77
2018-12-20T15:54:17.656Z,4.80
2018-12-20T15:56:45.771Z,4.87
2018-12-20T15:59:13.882Z,4.87
2018-12-20T16:01:41.929Z,4.87
2018-12-20T16:04:10.021Z,4.84
2018-12-20T16:06:37.732Z,4.83
2018-12-20T16:09:06.835Z,4.88
2018-12-20T16:11:34.664Z,4.92
2018-12-20T16:14:02.717Z,4.88
2018-12-20T16:16:30.770Z,4.88
2018-12-20T16:19:04.878Z,4.91
2018-12-20T16:21:28.786Z,4.94
2018-12-20T16:23:56.842Z,4.91
2018-12-20T16:26:24.759Z,4.99
2018-12-20T16:28:52.623Z,4.99
2018-12-20T16:31:20.790Z,5.01
2018-12-20T16:33:48.780Z,4.98
2018-12-20T16:36:16.791Z,4.99
2018-12-20T16:38:44.860Z,5.00
2018-12-20T16:41:12.936Z,5.02
2018-12-20T16:43:41.006Z,5.00
2018-12-20T16:46:09.058Z,5.00
2018-12-20T16:48:37.351Z,4.97
2018-12-20T16:51:05.265Z,5.03
2018-12-20T16:53:33.255Z,5.08
2018-12-20T16:56:01.364Z,5.11
2018-12-20T16:58:29.418Z,5.09
2018-12-20T17:00:57.505Z,5.15
2018-12-20T17:03:25.565Z,5.08
2018-12-20T17:05:53.508Z,4.91
2018-12-20T17:08:21.424Z,5.03
2018-12-20T17:10:49.364Z,5.03
2018-12-20T17:13:17.450Z,4.97
2018-12-20T17:15:45.446Z,4.82
2018-12-20T17:18:13.593Z,4.83
2018-12-20T17:20:41.579Z,4.82
2018-12-20T17:23:09.448Z,4.71
2018-12-20T17:25:37.383Z,4.84
2018-12-20T17:28:05.468Z,4.76
2018-12-20T17:30:33.515Z,4.73
2018-12-20T17:33:01.614Z,4.85
2018-12-20T17:35:29.672Z,4.74
2018-12-20T17:37:57.736Z,4.75
2018-12-20T17:40:25.677Z,4.77
2018-12-20T17:42:53.693Z,4.77
2018-12-20T17:45:21.607Z,5.02
2018-12-20T17:47:49.629Z,5.09
2018-12-20T17:50:17.614Z,4.91
2018-12-20T17:52:45.480Z,5.15
2018-12-20T17:55:13.794Z,5.24
2018-12-20T17:57:42.123Z,5.35
2018-12-20T18:00:10.647Z,5.39
2018-12-20T18:02:38.671Z,5.40
2018-12-20T18:05:07.116Z,5.35
2018-12-20T18:07:35.747Z,5.24
2018-12-20T18:10:04.527Z,5.25
2018-12-20T18:12:32.595Z,5.11
2018-12-20T18:15:00.594Z,5.20
2018-12-20T18:17:28.710Z,5.33
2018-12-20T18:19:56.809Z,5.37
2018-12-20T18:22:24.866Z,5.35
2018-12-20T18:24:52.806Z,5.31
2018-12-20T18:27:20.797Z,5.31
2018-12-20T18:29:48.866Z,5.38
2018-12-20T18:32:16.804Z,5.32
2018-12-20T18:34:44.669Z,5.27
2018-12-20T18:37:12.536Z,5.25
2018-12-20T18:39:40.450Z,5.35
2018-12-20T18:42:08.491Z,5.36
2018-12-20T18:44:36.357Z,5.39
2018-12-20T18:47:04.569Z,5.35
2018-12-20T18:49:32.614Z,5.38
2018-12-20T18:52:00.553Z,5.41
2018-12-20T18:54:28.419Z,5.30
2018-12-20T18:56:56.286Z,5.36
2018-12-20T18:59:24.311Z,5.36
2018-12-20T19:01:52.242Z,5.41
2018-12-20T19:04:20.249Z,5.42
2018-12-20T19:06:48.473Z,5.46
2018-12-20T19:09:16.596Z,5.43
2018-12-20T19:11:44.330Z,5.44
2018-12-20T19:14:12.171Z,5.46
2018-12-20T19:16:40.311Z,5.50
2018-12-20T19:19:08.471Z,5.49
2018-12-20T19:21:36.218Z,5.57
2018-12-20T19:24:04.483Z,5.50
2018-12-20T19:26:33.197Z,5.50
2018-12-20T19:29:01.166Z,5.51
2018-12-20T19:31:29.442Z,5.52
2018-12-20T19:33:57.513Z,5.49
2018-12-20T19:36:25.561Z,5.55
2018-12-20T19:38:53.626Z,5.48
2018-12-20T19:41:21.734Z,5.43
2018-12-20T19:43:49.782Z,5.31
2018-12-20T19:46:17.870Z,5.34
2018-12-20T19:48:45.914Z,5.29
2018-12-20T19:51:14.013Z,5.28
2018-12-20T19:53:42.044Z,5.38
2018-12-20T19:56:10.010Z,5.42
2018-12-20T19:58:38.024Z,5.45
2018-12-20T20:01:06.243Z,5.45
2018-12-20T20:03:34.083Z,5.35
2018-12-20T20:06:02.021Z,5.29
2018-12-20T20:08:29.963Z,5.24
2018-12-20T20:10:57.804Z,5.09
2018-12-20T20:13:30.693Z,4.99
2018-12-20T20:15:55.735Z,4.89
2018-12-20T20:18:23.804Z,4.63
2018-12-20T20:20:51.892Z,4.61
2018-12-20T20:23:19.932Z,4.58
2018-12-20T20:25:48.034Z,4.52
2018-12-20T20:28:15.939Z,4.44
2018-12-20T20:30:43.863Z,4.51
2018-12-20T20:33:11.795Z,4.50
2018-12-20T20:35:39.810Z,4.64
2018-12-20T20:38:08.001Z,4.44
2018-12-20T20:40:35.919Z,4.44
2018-12-20T20:43:04.043Z,4.34
2018-12-20T20:45:33.527Z,4.33
2018-12-20T20:48:01.563Z,4.12
2018-12-20T20:50:29.778Z,4.55
2018-12-20T20:52:57.945Z,4.45
2018-12-20T20:55:25.823Z,4.55
2018-12-20T20:57:53.977Z,4.78
2018-12-20T21:00:21.916Z,4.69
2018-12-20T21:02:49.781Z,4.56
2018-12-20T21:05:17.972Z,4.48
2018-12-20T21:07:46.067Z,4.91
2018-12-20T21:10:14.108Z,5.06
2018-12-20T21:12:42.069Z,5.06
2018-12-20T21:15:10.484Z,5.02
2018-12-20T21:17:38.556Z,5.01
2018-12-20T21:20:07.952Z,5.10
2018-12-20T21:22:35.835Z,5.03
2018-12-20T21:25:04.205Z,4.93
2018-12-20T21:27:32.341Z,4.91
2018-12-20T21:30:00.330Z,4.98
2018-12-20T21:32:28.272Z,5.00
2018-12-20T21:34:56.285Z,4.96
2018-12-20T21:37:24.001Z,4.97
2018-12-20T21:39:51.866Z,5.07
2018-12-20T21:42:19.892Z,5.06
2018-12-20T21:44:47.823Z,5.00
2018-12-20T21:47:16.012Z,5.17
2018-12-20T21:49:44.101Z,5.23
2018-12-20T21:52:12.169Z,5.23
2018-12-20T21:54:40.211Z,5.23
2018-12-20T21:57:08.333Z,5.20
2018-12-20T21:59:36.368Z,5.24
2018-12-20T22:02:04.458Z,5.26
2018-12-20T22:04:32.320Z,5.26
2018-12-20T22:07:00.316Z,5.24
2018-12-20T22:09:28.230Z,5.33
2018-12-20T22:11:56.318Z,5.38
2018-12-20T22:14:25.481Z,5.35
2018-12-20T22:16:53.980Z,5.35
2018-12-20T22:19:24.028Z,5.30
2018-12-20T22:21:52.301Z,5.30
2018-12-20T22:27:03.078Z,5.29
2018-12-20T22:29:31.467Z,5.30
2018-12-20T22:31:59.539Z,5.27
2018-12-20T22:34:27.575Z,5.21
2018-12-20T22:36:55.541Z,5.26
2018-12-20T22:39:23.419Z,5.24
2018-12-20T22:41:52.866Z,5.10
2018-12-20T22:44:20.927Z,5.22
2018-12-20T22:46:49.104Z,5.20
2018-12-20T22:49:17.044Z,5.19
2018-12-20T22:51:45.237Z,5.13
2018-12-20T22:54:13.397Z,4.94
2018-12-20T22:56:41.480Z,4.84
2018-12-20T22:59:09.406Z,5.01
2018-12-20T23:01:37.554Z,5.07
2018-12-20T23:04:05.694Z,4.98
2018-12-20T23:06:33.808Z,4.96
2018-12-20T23:09:02.067Z,4.97
2018-12-20T23:11:30.109Z,5.04
2018-12-20T23:13:57.980Z,5.06
2018-12-20T23:16:25.893Z,5.15
2018-12-20T23:18:53.915Z,5.08
2018-12-20T23:21:21.972Z,4.96
2018-12-20T23:23:50.058Z,4.96
2018-12-20T23:26:17.774Z,4.94
2018-12-20T23:28:45.799Z,4.93
2018-12-20T23:31:13.833Z,5.00
2018-12-20T23:33:42.138Z,4.89
2018-12-20T23:36:09.868Z,4.93
2018-12-20T23:38:37.731Z,4.85
2018-12-20T23:41:05.595Z,4.81
2018-12-20T23:43:33.465Z,4.74
2018-12-20T23:46:01.333Z,4.82
2018-12-20T23:48:29.444Z,4.74
2018-12-20T23:50:57.385Z,4.89
2018-12-20T23:53:25.327Z,4.85
2018-12-20T23:55:53.191Z,4.64
2018-12-20T23:58:21.060Z,4.67
